• Join FlightAware (Why Join?)
  • Login
  • US Flag 
02:23PM EDT


 

Airport Tracker/Info


-or-


 

Live Flight TrackerFlight Track Log ✈ N384RV ✈ 18-Apr-2012 ✈ KBWI - KBUR

Flight Track Log - Related Links

Times and Time Zones

All times are in EDT time to prevent confusion due to time zone crossing. See the N384RV flight status page for this flight to view local times or setup timezone preferences in your user account.

Time Position Orientation Groundspeed Altitude Reporting Facility
EDT Latitude Longitude Course Direction KTS MPH feet Rate Location/Type
07:04PM 39.1667 -76.7333 284° West 197 227 3,000  Level Potomac TRACON
07:05PM 39.1833 -76.8167 288° West 242 278 6,900 3,840 Climbing Potomac TRACON
07:06PM 39.2000 -76.8833 277° West 261 300 10,300 3,180 Climbing Potomac TRACON
07:07PM 39.2133 -77.0247 270° West 279 321 14,700 2,640 Climbing Washington Center
07:08PM 39.2139 -77.1400 307° West 300 345 16,900 1,080 Climbing Washington Center
07:09PM 39.2731 -77.2431 294° West 321 369 16,900 180 Level Washington Center
07:10PM 39.3131 -77.3594 301° West 341 392 17,300 1,380 Climbing Washington Center
07:11PM 39.3656 -77.4733 299° West 352 405 19,800 2,460 Climbing Washington Center
07:12PM 39.4178 -77.5931 300° West 369 425 22,300 2,340 Climbing Washington Center
07:13PM 39.4719 -77.7156 301° West 382 440 24,600 2,100 Climbing Washington Center
07:14PM 39.5281 -77.8381 292° West 389 448 26,500 1,740 Climbing Washington Center
07:16PM 39.6128 -78.1067 290° West 394 453 29,800 1,560 Climbing Cleveland Center
07:17PM 39.6533 -78.2508 292° West 418 481 31,200 1,380 Climbing Cleveland Center
07:18PM 39.6981 -78.3975 290° West 430 495 32,600 1,320 Climbing Cleveland Center
07:19PM 39.7406 -78.5475 290° West 440 506 33,900 1,080 Climbing Cleveland Center
07:20PM 39.7869 -78.7136 291° West 440 506 34,800 1,200 Climbing Cleveland Center
07:21PM 39.8247 -78.8450 291° West 440 506 36,400 1,440 Climbing Cleveland Center
07:22PM 39.8664 -78.9900 273° West 440 506 37,700 1,080 Climbing Cleveland Center
07:23PM 39.8725 -79.1414 272° West 429 494 38,600 720 Climbing Cleveland Center
07:24PM 39.8764 -79.2928 272° West 429 494 39,200 900 Climbing Cleveland Center
07:25PM 39.8800 -79.4414 273° West 418 481 40,400 900 Climbing Cleveland Center
07:26PM 39.8856 -79.5847 272° West 412 474 41,000 540 Climbing Cleveland Center
07:27PM 39.8889 -79.7336 272° West 412 474 41,500 300 Climbing Cleveland Center
07:28PM 39.8919 -79.8769 272° West 407 468 41,700 240 Climbing Cleveland Center
07:29PM 39.8950 -80.0256 271° West 402 463 42,000 300 Climbing Cleveland Center
07:30PM 39.8975 -80.1692 272° West 402 463 42,300 240 Climbing Cleveland Center
07:31PM 39.9022 -80.3178 271° West 402 463 42,500 180 Climbing Cleveland Center
07:32PM 39.9044 -80.4775 271° West 402 463 42,700 180 Climbing Cleveland Center
07:33PM 39.9067 -80.6264 271° West 402 463 42,900 120 Climbing Cleveland Center
07:34PM 39.9086 -80.7725 271° West 402 463 43,000  Climbing Cleveland Center
07:36PM 39.9128 -80.9939 270° West 397 457 43,000  Level Indianapolis Center
07:37PM 39.9136 -81.1400 272° West 397 457 43,000  Level Indianapolis Center
07:38PM 39.9167 -81.2833 270° West 402 463 43,000  Level Indianapolis Center
07:39PM 39.9156 -81.4486 272° West 402 463 43,000  Level Indianapolis Center
07:40PM 39.9200 -81.5892 269° West 402 463 43,000  Level Indianapolis Center
07:41PM 39.9181 -81.7353 271° West 402 463 43,000  Level Indianapolis Center
07:42PM 39.9203 -81.8814 270° West 402 463 43,000  Level Indianapolis Center
07:43PM 39.9200 -82.0142 271° West 402 463 43,000  Level Indianapolis Center
07:44PM 39.9219 -82.1603 271° West 402 463 43,000  Level Indianapolis Center
07:45PM 39.9233 -82.3036 270° West 402 463 43,000  Level Indianapolis Center
07:46PM 39.9228 -82.4472 271° West 402 463 43,000  Level Indianapolis Center
07:47PM 39.9242 -82.5933 269° West 402 463 43,000  Level Indianapolis Center
07:48PM 39.9231 -82.7394 269° West 402 463 43,000  Level Indianapolis Center
07:49PM 39.9219 -82.8831 270° West 402 463 43,000  Level Indianapolis Center
07:50PM 39.9228 -83.0319 269° West 402 463 43,000  Level Indianapolis Center
07:51PM 39.9211 -83.1917 269° West 402 463 43,000  Level Indianapolis Center
07:52PM 39.9194 -83.3406 271° West 402 463 43,000  Level Indianapolis Center
07:53PM 39.9217 -83.4678 270° West 409 471 43,000  Level Indianapolis Center
07:54PM 39.9217 -83.6167 267° West 409 471 43,000  Level Indianapolis Center
07:55PM 39.9153 -83.7681 269° West 419 482 43,000  Level Indianapolis Center
07:56PM 39.9128 -83.9117 270° West 407 468 43,000  Level Indianapolis Center
07:57PM 39.9122 -84.0606 268° West 407 468 43,000  Level Indianapolis Center
07:58PM 39.9075 -84.2200 269° West 402 463 43,000  Level Indianapolis Center
07:59PM 39.9064 -84.3636 268° West 402 463 43,000  Level Indianapolis Center
08:00PM 39.9033 -84.5097 269° West 402 463 43,000  Level Indianapolis Center
08:01PM 39.9019 -84.6558 268° West 402 463 43,000  Level Indianapolis Center
08:02PM 39.8986 -84.7992 269° West 402 463 43,000  Level Indianapolis Center
08:03PM 39.8972 -84.9289 268° West 402 463 43,000  Level Indianapolis Center
08:04PM 39.8933 -85.0778 268° West 402 463 43,000  Level Indianapolis Center
08:05PM 39.8889 -85.2372 268° West 402 463 43,000  Level Indianapolis Center
08:06PM 39.8847 -85.3806 267° West 408 470 43,000  Level Indianapolis Center
08:07PM 39.8781 -85.5319 268° West 402 463 43,000  Level Indianapolis Center
08:08PM 39.8736 -85.6750 268° West 402 463 43,000  Level Indianapolis Center
08:09PM 39.8689 -85.8211 267° West 402 463 43,000  Level Indianapolis Center
08:10PM 39.8639 -85.9642 268° West 402 463 43,000  Level Indianapolis Center
08:11PM 39.8608 -86.1103 266° West 402 463 43,000  Level Indianapolis Center
08:12PM 39.8539 -86.2317 267° West 408 470 43,000  Level Indianapolis Center
08:13PM 39.8456 -86.4097 266° West 413 475 43,000  Level Indianapolis Center
08:14PM 39.8378 -86.5608 266° West 419 482 43,000  Level Indianapolis Center
08:15PM 39.8300 -86.7011 267° West 404 465 43,000  Level Indianapolis Center
08:16PM 39.8239 -86.8497 267° West 404 465 43,000  Level Indianapolis Center
08:17PM 39.8178 -86.9900 266° West 404 465 43,000  Level Indianapolis Center
08:18PM 39.8092 -87.1381 267° West 404 465 43,000  Level Indianapolis Center
08:19PM 39.8028 -87.2811 267° West 398 458 43,000  Level Indianapolis Center
08:21PM 39.7917 -87.5506 267° West 412 474 43,000  Level Kansas City Center
08:22PM 39.7856 -87.7000 266° West 412 474 43,000  Level Kansas City Center
08:23PM 39.7772 -87.8467 265° West 412 474 43,000  Level Kansas City Center
08:24PM 39.7667 -87.9961 267° West 407 468 43,000  Level Kansas City Center
08:25PM 39.7600 -88.1425 264° West 412 474 43,000  Level Kansas City Center
08:26PM 39.7486 -88.2839 267° West 405 466 43,000  Level Kansas City Center
08:27PM 39.7417 -88.4331 265° West 410 472 43,000  Level Kansas City Center
08:28PM 39.7325 -88.5797 265° West 416 479 43,000  Level Kansas City Center
08:29PM 39.7231 -88.7289 265° West 416 479 43,000  Level Kansas City Center
08:30PM 39.7136 -88.8808 266° West 421 484 43,000  Level Kansas City Center
08:31PM 39.7042 -89.0353 264° West 428 493 43,000  Level Kansas City Center
08:32PM 39.6919 -89.1819 264° West 423 487 43,000  Level Kansas City Center
08:33PM 39.6797 -89.3339 265° West 423 487 43,000  Level Kansas City Center
08:34PM 39.6697 -89.4856 266° West 428 493 43,000  Level Kansas City Center
08:35PM 39.6611 -89.6344 265° West 428 493 43,000  Level Kansas City Center
08:36PM 39.6506 -89.7836 266° West 428 493 43,000  Level Kansas City Center
08:37PM 39.6406 -89.9567 263° West 428 493 43,000  Level Kansas City Center
08:38PM 39.6272 -90.1058 265° West 428 493 43,000  Level Kansas City Center
08:39PM 39.6161 -90.2572 265° West 423 487 43,000  Level Kansas City Center
08:40PM 39.6067 -90.4033 265° West 423 487 43,000  Level Kansas City Center
08:41PM 39.5967 -90.5386 263° West 423 487 43,000  Level Kansas City Center
08:42PM 39.5808 -90.6983 264° West 423 487 43,000  Level Kansas City Center
08:43PM 39.5689 -90.8444 264° West 423 487 43,000  Level Kansas City Center
08:44PM 39.5564 -90.9906 265° West 417 480 43,000  Level Kansas City Center
08:45PM 39.5461 -91.1389 263° West 422 486 43,000  Level Kansas City Center
08:46PM 39.5314 -91.2850 265° West 415 478 43,000  Level Kansas City Center
08:47PM 39.5208 -91.4333 264° West 415 478 43,000  Level Kansas City Center
08:48PM 39.5097 -91.5792 262° West 420 483 43,000  Level Kansas City Center
08:49PM 39.4925 -91.7306 264° West 420 483 43,000  Level Kansas City Center
08:50PM 39.4811 -91.8761 264° West 420 483 43,000  Level Kansas City Center
08:51PM 39.4697 -92.0244 263° West 420 483 43,000  Level Kansas City Center
08:52PM 39.4542 -92.1783 264° West 425 489 43,000  Level Kansas City Center
08:53PM 39.4422 -92.3211 262° West 425 489 43,000  Level Kansas City Center
08:54PM 39.4261 -92.4692 264° West 425 489 43,000  Level Kansas City Center
08:55PM 39.4139 -92.6175 263° West 425 489 43,000  Level Kansas City Center
08:56PM 39.3994 -92.7656 263° West 425 489 43,000  Level Kansas City Center
08:57PM 39.3850 -92.9108 263° West 420 483 43,000  Level Kansas City Center
08:58PM 39.3719 -93.0428 264° West 425 489 43,000  Level Kansas City Center
08:59PM 39.3592 -93.1933 261° West 425 489 43,000  Level Kansas City Center
09:00PM 39.3419 -93.3331 262° West 420 483 43,000  Level Kansas City Center
09:01PM 39.3264 -93.4703 262° West 410 472 43,000  Level Kansas City Center
09:02PM 39.3108 -93.6181 263° West 410 472 43,000  Level Kansas City Center
09:03PM 39.2972 -93.7631 261° West 415 478 43,000  Level Kansas City Center
09:04PM 39.2775 -93.9242 263° West 415 478 43,000  Level Kansas City Center
09:05PM 39.2633 -94.0717 261° West 409 471 43,000  Level Kansas City Center
09:06PM 39.2472 -94.2031 262° West 409 471 43,000  Level Kansas City Center
09:07PM 39.2308 -94.3506 262° West 409 471 43,000  Level Kansas City Center
09:08PM 39.2142 -94.5114 262° West 414 476 43,000  Level Kansas City Center
09:09PM 39.1975 -94.6558 261° West 414 476 43,000  Level Kansas City Center
09:10PM 39.1806 -94.7897 261° West 414 476 43,000  Level Kansas City Center
09:11PM 39.1633 -94.9369 261° West 419 482 43,000  Level Kansas City Center
09:12PM 39.1439 -95.1000 263° West 419 482 43,000  Level Kansas City Center
09:13PM 39.1286 -95.2525 261° West 441 507 43,000  Level Kansas City Center
09:14PM 39.1108 -95.3994 260° West 425 489 43,000  Level Kansas City Center
09:15PM 39.0908 -95.5517 261° West 425 489 43,000  Level Kansas City Center
09:16PM 39.0750 -95.6853 261° West 425 489 43,000  Level Kansas City Center
09:17PM 39.0567 -95.8344 263° West 425 489 43,000  Level Kansas City Center
09:18PM 39.0403 -95.9972 259° West 430 495 43,000  Level Kansas City Center
09:19PM 39.0197 -96.1383 261° West 425 489 43,000  Level Kansas City Center
09:20PM 39.0008 -96.2850 259° West 419 482 43,000  Level Kansas City Center
09:21PM 38.9822 -96.4128 261° West 419 482 43,000  Level Kansas City Center
09:22PM 38.9631 -96.5617 260° West 419 482 43,000 120 Level Kansas City Center
09:23PM 38.9417 -96.7133 260° West 424 488 43,300 300 Climbing Kansas City Center
09:24PM 38.9222 -96.8594 261° West 435 501 43,700 420 Climbing Kansas City Center
09:25PM 38.9047 -97.0056 261° West 429 494 44,200 420 Climbing Kansas City Center
09:26PM 38.8847 -97.1622 260° West 419 482 44,600 300 Climbing Kansas City Center
09:27PM 38.8647 -97.3056 260° West 414 476 44,800 180 Climbing Kansas City Center
09:28PM 38.8444 -97.4514 260° West 408 470 45,000 60 Climbing Kansas City Center
09:29PM 38.8267 -97.5786 259° West 413 475 45,000  Level Kansas City Center
09:30PM 38.8064 -97.7161 260° West 408 470 45,000  Level Kansas City Center
09:31PM 38.7853 -97.8750 259° West 408 470 45,000  Level Kansas City Center
09:32PM 38.7644 -98.0181 259° West 408 470 45,000  Level Kansas City Center
09:33PM 38.7436 -98.1581 259° West 408 470 45,000  Level Kansas City Center
09:34PM 38.7225 -98.3033 259° West 408 470 45,000  Level Kansas City Center
09:35PM 38.7014 -98.4433 259° West 413 475 45,000  Level Kansas City Center
09:36PM 38.6797 -98.5858 259° West 413 475 45,000  Level Kansas City Center
09:37PM 38.6581 -98.7308 259° West 413 475 45,000  Level Kansas City Center
09:38PM 38.6361 -98.8758 259° West 413 475 45,000  Level Kansas City Center
09:39PM 38.6142 -99.0206 259° West 413 475 45,000  Level Kansas City Center
09:40PM 38.5922 -99.1603 260° West 413 475 45,000  Level Kansas City Center
09:41PM 38.5719 -99.3022 259° West 413 475 45,000  Level Kansas City Center
09:42PM 38.5494 -99.4442 257° West 413 475 45,000  Level Kansas City Center
09:43PM 38.5275 -99.5700 257° West 400 460 45,000  Level Kansas City Center
09:44PM 38.5000 -99.7247 259° West 407 468 45,000  Level Kansas City Center
09:45PM 38.4789 -99.8692 258° West 415 478 45,000  Level Kansas City Center
09:47PM 38.4389 -100.1136 258° West 385 443 45,000  Level Denver Center
09:48PM 38.4122 -100.2697 259° West 402 463 45,000  Level Denver Center
09:49PM 38.3906 -100.4122 258° West 409 471 45,000  Level Denver Center
09:50PM 38.3700 -100.5383 258° West 415 478 45,000  Level Denver Center
09:51PM 38.3461 -100.6808 257° West 415 478 45,000  Level Denver Center
09:52PM 38.3183 -100.8367 259° West 415 478 45,000  Level Denver Center
09:53PM 38.2961 -100.9786 256° West 415 478 45,000  Level Denver Center
09:54PM 38.2711 -101.1075 258° West 415 478 45,000  Level Denver Center
09:55PM 38.2447 -101.2628 258° West 420 483 45,000  Level Denver Center
09:56PM 38.2200 -101.4047 258° West 420 483 45,000  Level Denver Center
09:57PM 38.1986 -101.5331 256° West 420 483 45,000  Level Denver Center
09:58PM 38.1711 -101.6750 258° West 420 483 45,000  Level Denver Center
09:59PM 38.1444 -101.8325 257° West 420 483 45,000  Level Denver Center
10:00PM 38.1186 -101.9714 258° West 420 483 45,000  Level Denver Center
10:01PM 38.0964 -102.0994 257° West 414 476 45,000  Level Denver Center
10:02PM 38.0689 -102.2517 256° West 414 476 45,000  Level Denver Center
10:03PM 38.0406 -102.3931 258° West 419 482 45,000  Level Denver Center
10:04PM 38.0164 -102.5314 256° West 419 482 45,000  Level Denver Center
10:05PM 37.9878 -102.6753 257° West 419 482 45,000  Level Denver Center
10:06PM 37.9631 -102.8133 257° West 419 482 45,000  Level Denver Center
10:07PM 37.9364 -102.9544 257° West 419 482 45,000  Level Denver Center
10:08PM 37.9131 -103.0817 256° West 419 482 45,000  Level Denver Center
10:09PM 37.8819 -103.2358 256° West 419 482 45,000  Level Denver Center
10:10PM 37.8547 -103.3736 256° West 419 482 45,000  Level Denver Center
10:11PM 37.8272 -103.5169 257° West 419 482 45,000  Level Denver Center
10:12PM 37.8033 -103.6439 256° West 419 482 45,100  Climbing Denver Center
10:13PM 37.7736 -103.7947 256° West 419 482 45,000 -60 Descending Denver Center
10:14PM 37.7456 -103.9375 256° West 419 482 45,000  Level Denver Center
10:15PM 37.7211 -104.0617 255° West 419 482 45,100  Climbing Denver Center
10:16PM 37.6889 -104.2175 254° West 419 482 45,100 -60 Level Denver Center
10:17PM 37.6581 -104.3575 256° West 419 482 45,000 -60 Descending Denver Center
10:18PM 37.6333 -104.4839 255° West 419 482 45,000  Level Denver Center
10:19PM 37.6006 -104.6394 255° West 425 489 45,100 -120 Climbing Denver Center
10:20PM 37.5733 -104.7711 255° West 415 478 44,800  Descending Denver Center
10:21PM 37.5442 -104.9053 256° West 400 460 45,100 60 Climbing Denver Center
10:22PM 37.5206 -105.0208 256° West 395 455 45,000 -60 Descending Denver Center
10:23PM 37.4931 -105.1547 255° West 395 455 45,000  Level Denver Center
10:24PM 37.4653 -105.2861 255° West 400 460 45,000  Level Denver Center
10:25PM 37.4314 -105.4408 256° West 405 466 45,000  Level Denver Center
10:26PM 37.4033 -105.5847 254° West 419 482 45,000  Level Denver Center
10:27PM 37.3750 -105.7106 254° West 419 482 45,000  Level Denver Center
10:28PM 37.3406 -105.8650 251° West 419 482 45,000  Level Denver Center
10:29PM 37.3036 -106.0033 253° West 419 482 45,000  Level Denver Center
10:30PM 37.2708 -106.1417 251° West 424 488 45,000  Level Denver Center
10:31PM 37.2378 -106.2619 253° West 418 481 45,000  Level Denver Center
10:32PM 37.2025 -106.4103 251° West 418 481 45,000  Level Denver Center
10:33PM 37.1669 -106.5433 252° West 419 482 45,000  Level Denver Center
10:34PM 37.1314 -106.6811 252° West 414 476 45,000  Level Denver Center
10:35PM 37.1000 -106.8008 252° West 414 476 45,000  Level Denver Center
10:36PM 37.0597 -106.9539 251° West 414 476 45,000  Level Denver Center
10:37PM 37.0217 -107.0914 252° West 421 484 45,000  Level Denver Center
10:38PM 36.9853 -107.2314 252° West 421 484 45,000  Level Denver Center
10:39PM 36.9531 -107.3583 251° West 421 484 45,000  Level Denver Center
10:40PM 36.9122 -107.5083 252° West 421 484 45,000  Level Denver Center
10:41PM 36.8756 -107.6453 251° West 421 484 45,000  Level Denver Center
10:42PM 36.8386 -107.7819 251° West 421 484 45,000  Level Denver Center
10:43PM 36.8036 -107.9083 251° West 421 484 45,000  Level Denver Center
10:44PM 36.7619 -108.0603 255° West 421 484 45,000  Level Denver Center
10:45PM 36.7328 -108.1994 257° West 421 484 45,000  Level Denver Center
10:46PM 36.7100 -108.3256 257° West 414 476 45,000  Level Denver Center
10:47PM 36.6847 -108.4672 256° West 414 476 45,000  Level Denver Center
10:48PM 36.6547 -108.6217 258° West 419 482 45,000  Level Denver Center
10:49PM 36.6314 -108.7606 256° West 419 482 45,000  Level Denver Center
10:50PM 36.6056 -108.8889 255° West 425 489 45,000  Level Denver Center
10:51PM 36.5731 -109.0428 257° West 425 489 45,000  Level Denver Center
10:52PM 36.5469 -109.1864 256° West 425 489 45,000  Level Denver Center
10:53PM 36.5231 -109.3094 257° West 419 482 45,000  Level Denver Center
10:54PM 36.4964 -109.4503 256° West 419 482 45,000  Level Denver Center
10:55PM 36.4653 -109.6039 256° West 419 482 45,000  Level Denver Center
10:56PM 36.4361 -109.7444 256° West 419 482 45,000  Level Denver Center
10:57PM 36.4117 -109.8672 255° West 414 476 45,000  Level Denver Center
10:58PM 36.3803 -110.0150 257° West 414 476 45,000  Level Denver Center
10:59PM 36.3600 -110.1275 254° West 414 476 45,000  Level Denver Center
11:00PM 36.3261 -110.2700 257° West 402 463 45,000  Level Denver Center
11:01PM 36.3006 -110.4050 256° West 402 463 45,000  Level Denver Center
11:02PM 36.2728 -110.5425 255° West 412 474 45,000  Level Denver Center
11:03PM 36.2428 -110.6797 256° West 412 474 45,000  Level Denver Center
11:04PM 36.2122 -110.8297 255° West 412 474 45,000  Level Denver Center
11:05PM 36.1817 -110.9692 257° West 412 474 45,000  Level Denver Center
11:06PM 36.1394 -111.1892 256° West 414 476 45,000  Level Los Angeles Center
11:07PM 36.1117 -111.3269 255° West 419 482 45,000  Level Los Angeles Center
11:08PM 36.0814 -111.4650 256° West 419 482 45,000  Level Los Angeles Center
11:09PM 36.0550 -111.5925 256° West 419 482 45,000  Level Los Angeles Center
11:10PM 36.0267 -111.7328 254° West 419 482 45,000  Level Los Angeles Center
11:11PM 35.9961 -111.8678 255° West 419 482 45,000  Level Los Angeles Center
11:12PM 35.9656 -112.0106 255° West 424 488 45,000  Level Los Angeles Center
11:13PM 35.9364 -112.1456 255° West 424 488 45,000  Level Los Angeles Center
11:14PM 35.9056 -112.2856 256° West 417 480 45,000  Level Los Angeles Center
11:15PM 35.8764 -112.4253 255° West 417 480 45,000  Level Los Angeles Center
11:16PM 35.8472 -112.5597 254° West 417 480 45,000  Level Los Angeles Center
11:17PM 35.8156 -112.6994 254° West 422 486 45,000  Level Los Angeles Center
11:18PM 35.7839 -112.8392 255° West 422 486 45,000  Level Los Angeles Center
11:19PM 35.7542 -112.9786 254° West 422 486 45,000  Level Los Angeles Center
11:20PM 35.7222 -113.1153 256° West 422 486 45,000  Level Los Angeles Center
11:21PM 35.6922 -113.2597 254° West 417 480 45,000  Level Los Angeles Center
11:22PM 35.6619 -113.3886 254° West 423 487 45,000  Level Los Angeles Center
11:23PM 35.6256 -113.5406 253° West 418 481 45,000  Level Los Angeles Center
11:24PM 35.5908 -113.6769 251° West 418 481 45,000  Level Los Angeles Center
11:25PM 35.5517 -113.8133 251° West 423 487 45,000  Level Los Angeles Center
11:26PM 35.5144 -113.9472 251° West 423 487 45,000  Level Los Angeles Center
11:27PM 35.4772 -114.0833 251° West 428 493 45,000  Level Los Angeles Center
11:28PM 35.4417 -114.2092 252° West 421 484 45,000 -60 Level Los Angeles Center
11:29PM 35.4061 -114.3450 251° West 411 473 44,900 -1,380 Descending Los Angeles Center
11:30PM 35.3683 -114.4783 251° West 411 473 42,300 -2,160 Descending Los Angeles Center
11:31PM 35.3325 -114.6089 251° West 411 473 40,600 -1,800 Descending Los Angeles Center
11:32PM 35.2944 -114.7419 251° West 411 473 38,800 -1,800 Descending Los Angeles Center
11:33PM 35.2564 -114.8775 251° West 411 473 37,000 -1,800 Descending Los Angeles Center
11:34PM 35.2181 -115.0103 251° West 411 473 35,200 -1,500 Descending Los Angeles Center
11:35PM 35.1814 -115.1403 250° West 411 473 34,100 -600 Descending Los Angeles Center
11:36PM 35.1450 -115.2653 251° West 411 473 34,000 -60 Descending Los Angeles Center
11:37PM 35.1061 -115.4053 250° West 431 496 34,000  Level Los Angeles Center
11:38PM 35.0650 -115.5400 251° West 431 496 34,000  Level Los Angeles Center
11:39PM 35.0261 -115.6747 251° West 431 496 34,000  Level Los Angeles Center
11:40PM 34.9867 -115.8119 251° West 426 490 34,000 -660 Level Los Angeles Center
11:41PM 34.9475 -115.9489 250° West 426 490 32,700 -1,860 Descending Los Angeles Center
11:42PM 34.9078 -116.0833 251° West 426 490 30,300 -2,340 Descending Los Angeles Center
11:43PM 34.8683 -116.2225 250° West 426 490 28,000 -2,340 Descending Los Angeles Center
11:44PM 34.8264 -116.3592 253° West 426 490 25,700 -2,220 Descending Los Angeles Center
11:45PM 34.7925 -116.4956 263° West 426 490 23,600 -2,100 Descending Los Angeles Center
11:46PM 34.7794 -116.6294 263° West 416 479 21,600 -1,800 Descending Los Angeles Center
11:47PM 34.7664 -116.7586 263° West 410 472 20,000 -840 Descending Los Angeles Center
11:48PM 34.7531 -116.8872 263° West 404 465 20,000  Level Los Angeles Center
11:49PM 34.7397 -117.0136 263° West 392 451 20,000  Level Los Angeles Center
11:50PM 34.7261 -117.1447 263° West 387 445 20,000  Level Los Angeles Center
11:51PM 34.7125 -117.2786 262° West 392 451 20,000  Level Los Angeles Center
11:52PM 34.6964 -117.4225 264° West 397 457 20,000 -480 Level Los Angeles Center
11:53PM 34.6844 -117.5561 262° West 397 457 19,100 -1,500 Descending Los Angeles Center
11:54PM 34.6706 -117.6797 262° West 391 450 17,100 -2,040 Descending Los Angeles Center
11:55PM 34.6564 -117.8006 259° West 379 436 15,100 -2,040 Descending Los Angeles Center
11:56PM 34.6378 -117.9214 259° West 374 430 13,100 -1,560 Descending Los Angeles Center
11:57PM 34.6194 -118.0372 259° West 369 425 12,000 -600 Descending Los Angeles Center
11:58PM 34.6008 -118.1528 259° West 359 413 11,900 -1,200 Descending Los Angeles Center
11:59PM 34.5844 -118.2583 258° West 333 383 9,600 -1,920 Descending Los Angeles Center
12:00AM 34.5683 -118.3486 256° West 300 345 8,100 -780 Descending Los Angeles Center
12:01AM 34.5497 -118.4392 247° West 279 321 8,100 -240 Level Los Angeles Center
12:02AM 34.5211 -118.5214 184° South 272 313 7,700 -900 Descending Los Angeles Center
12:03AM 34.4481 -118.5269 168° South 238 274 6,300 -1,380 Descending Los Angeles Center
12:04AM 34.3733 -118.5072 171° South 254 292 5,000 -780 Descending Los Angeles Center
12:05AM 34.3108 -118.4953 175° South 247 284 4,800 -900 Descending Los Angeles Center
12:06AM 34.2525 -118.4886 175° South 221 254 3,200 -1,020 Descending Los Angeles Center
12:07AM 34.2000 -118.4833 90° East 190 219 2,900 -780 Descending Southern California TRACON
12:08AM 34.2000 -118.4333 90° East 141 162 1,700 -960 Descending Southern California TRACON
12:09AM 34.2000 -118.3833 90° East 118 136 1,000 -720 Descending Southern California TRACON